Ana Sayfa
METAR-TAF:

METAR-TAF

Havaalanları :

Ashland, Kentucky, Amerika Birleşik Devletleri

Enlem: 38-33-16N, Boylam: 082-44-17W, yükseklik: 166 m

Güncel hava durumu gözlemi

Rapor saat 21:56 UTC de 1 saat ve 20 dakika önce yapıldı.
Sakin rüzgar
Sıcaklık 28°C
Nem 66%
Basınç 1017 hPa
Görüş mesafesi: 16.1 km
5000 ft yükseklikte az bulutlu

METAR: KDWU 112156Z AUTO 00000KT 10SM FEW050 28/21 A3003 RMK AO2 SLP165 T02780211

Saat: 19:16 (23:16 UTC)


TAF: eksik

4.000'den fazla havaalanı için hava durumu gözlemleri ve tahminleri (METAR ve TAF raporları).

Kullanılabilir istasyonlar harita üzerinde sarı ve kırmızı noktalarla gösterilir.

İstasyonun adını görmek için fareyi noktanın üzerinde gezdirin.

Sonrasında hava gözlem ve tahminlerini görmek için tıklayın.

Haritayı değiştirmek için: yaklaştırmak için siyah artı işaretli yeşil düğmeye ve uzaklaştırmak için de eksi işaretli düğmeye hızla tıklayın; bitişik haritalar için yeşil okları kullanın.


METAR-TAF: